Search for airport 
image banner adimage banner adimage banner ad
image banner ad

PS24 - Brownsville General Hospital

Located in Brownsville, United States

ICAO - PS24, IATA -

Data provided by Airmate  

General information

Coordinates: N40°0'13" W79°52'32"
Elevation is 1199 feet MSL.
Magnetic variation is -09° East
View others Airports in Pennsylvania

Operational data

Special qualification required
Current time UTC:
Current local time:
Weather at : KAFJ - Washington County ( 38 km )
METAR: KAFJ 071256Z AUTO 33003KT 10SM -RA FEW009 OVC036 06/06 A2992 RMK AO2 SLP135 P0003 T00610056
View NOTAMs / SUP AIP / TFR affecting this airport [VIEW]
Communications frequencies: [VIEW]

Runways:

Airport contact information

Address: Brownsville United States

Satellite view of PS24